sensor_id;sensor_type;location;lat;lon;timestamp;P1;durP1;ratioP1;P2;durP2;ratioP2
23712;SDS011;12035;49.978;8.298;2022-12-18T00:01:24;43.17;;;16.83;;
23712;SDS011;12035;49.978;8.298;2022-12-18T00:06:23;36.30;;;14.70;;
23712;SDS011;12035;49.978;8.298;2022-12-18T00:11:23;41.85;;;14.80;;
23712;SDS011;12035;49.978;8.298;2022-12-18T00:16:24;40.92;;;15.82;;
23712;SDS011;12035;49.978;8.298;2022-12-18T00:21:22;37.20;;;15.27;;
23712;SDS011;12035;49.978;8.298;2022-12-18T00:26:20;39.83;;;14.68;;
23712;SDS011;12035;49.978;8.298;2022-12-18T00:31:23;33.47;;;13.30;;
23712;SDS011;12035;49.978;8.298;2022-12-18T00:36:21;31.02;;;11.90;;
23712;SDS011;12035;49.978;8.298;2022-12-18T00:41:21;35.38;;;14.43;;
23712;SDS011;12035;49.978;8.298;2022-12-18T00:51:36;31.17;;;12.70;;
23712;SDS011;12035;49.978;8.298;2022-12-18T00:56:34;30.42;;;13.10;;
23712;SDS011;12035;49.978;8.298;2022-12-18T01:01:33;36.20;;;15.00;;
23712;SDS011;12035;49.978;8.298;2022-12-18T01:06:31;34.05;;;15.32;;
23712;SDS011;12035;49.978;8.298;2022-12-18T01:11:28;38.67;;;14.23;;
23712;SDS011;12035;49.978;8.298;2022-12-18T01:16:25;32.47;;;13.57;;
23712;SDS011;12035;49.978;8.298;2022-12-18T01:21:22;31.67;;;13.65;;
23712;SDS011;12035;49.978;8.298;2022-12-18T01:26:21;34.33;;;15.02;;
23712;SDS011;12035;49.978;8.298;2022-12-18T01:31:21;34.30;;;14.40;;
23712;SDS011;12035;49.978;8.298;2022-12-18T01:36:21;29.77;;;13.13;;
23712;SDS011;12035;49.978;8.298;2022-12-18T01:41:22;34.13;;;14.13;;
23712;SDS011;12035;49.978;8.298;2022-12-18T01:46:22;32.80;;;13.30;;
23712;SDS011;12035;49.978;8.298;2022-12-18T01:51:21;34.20;;;12.23;;
23712;SDS011;12035;49.978;8.298;2022-12-18T01:56:19;29.10;;;11.32;;
23712;SDS011;12035;49.978;8.298;2022-12-18T02:01:18;30.00;;;12.30;;
23712;SDS011;12035;49.978;8.298;2022-12-18T02:06:19;30.33;;;12.80;;
23712;SDS011;12035;49.978;8.298;2022-12-18T02:11:27;30.92;;;12.77;;
23712;SDS011;12035;49.978;8.298;2022-12-18T02:16:37;26.40;;;12.02;;
23712;SDS011;12035;49.978;8.298;2022-12-18T02:21:42;27.13;;;12.68;;
23712;SDS011;12035;49.978;8.298;2022-12-18T02:26:49;28.95;;;11.90;;
23712;SDS011;12035;49.978;8.298;2022-12-18T02:31:49;40.35;;;13.77;;
23712;SDS011;12035;49.978;8.298;2022-12-18T02:36:51;30.55;;;12.93;;
23712;SDS011;12035;49.978;8.298;2022-12-18T02:41:50;37.45;;;12.18;;
23712;SDS011;12035;49.978;8.298;2022-12-18T02:46:48;46.70;;;12.07;;
23712;SDS011;12035;49.978;8.298;2022-12-18T02:51:50;35.42;;;12.20;;
23712;SDS011;12035;49.978;8.298;2022-12-18T02:56:55;26.88;;;11.70;;
23712;SDS011;12035;49.978;8.298;2022-12-18T03:01:55;28.20;;;12.30;;
23712;SDS011;12035;49.978;8.298;2022-12-18T03:12:02;23.38;;;10.32;;
23712;SDS011;12035;49.978;8.298;2022-12-18T03:17:22;23.75;;;11.43;;
23712;SDS011;12035;49.978;8.298;2022-12-18T03:22:22;29.58;;;12.18;;
23712;SDS011;12035;49.978;8.298;2022-12-18T03:27:24;24.83;;;11.30;;
23712;SDS011;12035;49.978;8.298;2022-12-18T03:32:24;26.35;;;11.13;;
23712;SDS011;12035;49.978;8.298;2022-12-18T03:37:25;24.33;;;10.15;;
23712;SDS011;12035;49.978;8.298;2022-12-18T03:42:23;20.95;;;10.38;;
23712;SDS011;12035;49.978;8.298;2022-12-18T03:47:30;20.65;;;9.27;;
23712;SDS011;12035;49.978;8.298;2022-12-18T03:52:34;29.52;;;10.98;;
23712;SDS011;12035;49.978;8.298;2022-12-18T03:57:35;25.65;;;11.55;;
23712;SDS011;12035;49.978;8.298;2022-12-18T04:02:34;27.60;;;11.48;;
23712;SDS011;12035;49.978;8.298;2022-12-18T04:07:34;23.20;;;11.30;;
23712;SDS011;12035;49.978;8.298;2022-12-18T04:12:32;27.08;;;10.75;;
23712;SDS011;12035;49.978;8.298;2022-12-18T04:17:31;26.95;;;11.25;;
23712;SDS011;12035;49.978;8.298;2022-12-18T04:22:28;25.52;;;11.55;;
23712;SDS011;12035;49.978;8.298;2022-12-18T04:27:25;28.27;;;12.63;;
23712;SDS011;12035;49.978;8.298;2022-12-18T04:32:22;27.38;;;12.32;;
23712;SDS011;12035;49.978;8.298;2022-12-18T04:37:20;27.60;;;12.70;;
23712;SDS011;12035;49.978;8.298;2022-12-18T04:42:17;26.35;;;11.63;;
23712;SDS011;12035;49.978;8.298;2022-12-18T04:47:14;29.73;;;12.82;;
23712;SDS011;12035;49.978;8.298;2022-12-18T04:52:11;26.90;;;12.68;;
23712;SDS011;12035;49.978;8.298;2022-12-18T04:57:10;27.35;;;12.98;;
23712;SDS011;12035;49.978;8.298;2022-12-18T05:02:07;32.42;;;12.57;;
23712;SDS011;12035;49.978;8.298;2022-12-18T05:07:04;25.80;;;11.73;;
23712;SDS011;12035;49.978;8.298;2022-12-18T05:12:01;25.70;;;12.35;;
23712;SDS011;12035;49.978;8.298;2022-12-18T05:17:00;26.20;;;10.98;;
23712;SDS011;12035;49.978;8.298;2022-12-18T05:21:57;30.05;;;12.07;;
23712;SDS011;12035;49.978;8.298;2022-12-18T05:26:54;40.83;;;13.15;;
23712;SDS011;12035;49.978;8.298;2022-12-18T05:31:52;39.22;;;12.73;;
23712;SDS011;12035;49.978;8.298;2022-12-18T05:36:50;41.35;;;12.50;;
23712;SDS011;12035;49.978;8.298;2022-12-18T05:41:47;31.70;;;13.02;;
23712;SDS011;12035;49.978;8.298;2022-12-18T05:46:44;37.58;;;13.23;;
23712;SDS011;12035;49.978;8.298;2022-12-18T05:51:41;26.55;;;11.95;;
23712;SDS011;12035;49.978;8.298;2022-12-18T05:56:39;28.20;;;11.35;;
23712;SDS011;12035;49.978;8.298;2022-12-18T06:01:36;23.60;;;11.80;;
23712;SDS011;12035;49.978;8.298;2022-12-18T06:06:34;37.00;;;12.88;;
23712;SDS011;12035;49.978;8.298;2022-12-18T06:11:31;29.35;;;12.25;;
23712;SDS011;12035;49.978;8.298;2022-12-18T06:16:30;25.10;;;11.73;;
23712;SDS011;12035;49.978;8.298;2022-12-18T06:21:28;25.05;;;12.00;;
23712;SDS011;12035;49.978;8.298;2022-12-18T06:26:26;26.98;;;12.50;;
23712;SDS011;12035;49.978;8.298;2022-12-18T06:31:23;27.20;;;11.45;;
23712;SDS011;12035;49.978;8.298;2022-12-18T06:36:21;27.35;;;12.68;;
23712;SDS011;12035;49.978;8.298;2022-12-18T06:41:19;30.00;;;12.85;;
23712;SDS011;12035;49.978;8.298;2022-12-18T06:46:17;26.98;;;11.38;;
23712;SDS011;12035;49.978;8.298;2022-12-18T06:51:15;29.20;;;12.73;;
23712;SDS011;12035;49.978;8.298;2022-12-18T06:56:15;26.00;;;11.55;;
23712;SDS011;12035;49.978;8.298;2022-12-18T07:01:13;24.80;;;11.32;;
23712;SDS011;12035;49.978;8.298;2022-12-18T07:06:13;26.45;;;11.48;;
23712;SDS011;12035;49.978;8.298;2022-12-18T07:11:12;28.90;;;12.07;;
23712;SDS011;12035;49.978;8.298;2022-12-18T07:16:12;29.45;;;12.80;;
23712;SDS011;12035;49.978;8.298;2022-12-18T07:21:11;30.70;;;12.43;;
23712;SDS011;12035;49.978;8.298;2022-12-18T07:26:12;41.13;;;12.82;;
23712;SDS011;12035;49.978;8.298;2022-12-18T07:31:12;40.38;;;13.65;;
23712;SDS011;12035;49.978;8.298;2022-12-18T07:36:12;39.75;;;14.68;;
23712;SDS011;12035;49.978;8.298;2022-12-18T07:41:11;39.83;;;13.98;;
23712;SDS011;12035;49.978;8.298;2022-12-18T07:46:11;36.13;;;14.43;;
23712;SDS011;12035;49.978;8.298;2022-12-18T07:51:10;38.78;;;13.98;;
23712;SDS011;12035;49.978;8.298;2022-12-18T07:56:10;35.08;;;13.18;;
23712;SDS011;12035;49.978;8.298;2022-12-18T08:01:09;28.38;;;12.27;;
23712;SDS011;12035;49.978;8.298;2022-12-18T08:06:09;29.45;;;13.23;;
23712;SDS011;12035;49.978;8.298;2022-12-18T08:11:06;33.67;;;15.05;;
23712;SDS011;12035;49.978;8.298;2022-12-18T08:16:04;27.20;;;12.88;;
23712;SDS011;12035;49.978;8.298;2022-12-18T08:21:11;29.88;;;14.02;;
23712;SDS011;12035;49.978;8.298;2022-12-18T08:26:11;36.65;;;16.17;;
23712;SDS011;12035;49.978;8.298;2022-12-18T08:31:08;35.15;;;15.23;;
23712;SDS011;12035;49.978;8.298;2022-12-18T08:36:06;36.03;;;14.90;;
23712;SDS011;12035;49.978;8.298;2022-12-18T08:41:06;32.88;;;14.57;;
23712;SDS011;12035;49.978;8.298;2022-12-18T08:46:06;45.10;;;17.42;;
23712;SDS011;12035;49.978;8.298;2022-12-18T08:51:03;35.88;;;16.38;;
23712;SDS011;12035;49.978;8.298;2022-12-18T08:56:01;46.15;;;18.05;;
23712;SDS011;12035;49.978;8.298;2022-12-18T09:01:00;42.15;;;16.83;;
23712;SDS011;12035;49.978;8.298;2022-12-18T09:05:58;39.08;;;15.60;;
23712;SDS011;12035;49.978;8.298;2022-12-18T09:10:55;39.45;;;16.92;;
23712;SDS011;12035;49.978;8.298;2022-12-18T09:15:53;40.40;;;16.75;;
23712;SDS011;12035;49.978;8.298;2022-12-18T09:20:52;39.00;;;15.27;;
23712;SDS011;12035;49.978;8.298;2022-12-18T09:25:49;38.33;;;16.45;;
23712;SDS011;12035;49.978;8.298;2022-12-18T09:30:47;37.40;;;17.35;;
23712;SDS011;12035;49.978;8.298;2022-12-18T09:35:45;38.00;;;16.95;;
23712;SDS011;12035;49.978;8.298;2022-12-18T09:40:45;34.95;;;16.50;;
23712;SDS011;12035;49.978;8.298;2022-12-18T09:45:46;31.65;;;15.38;;
23712;SDS011;12035;49.978;8.298;2022-12-18T09:50:48;35.95;;;17.08;;
23712;SDS011;12035;49.978;8.298;2022-12-18T09:55:49;42.88;;;17.77;;
23712;SDS011;12035;49.978;8.298;2022-12-18T10:00:51;37.67;;;18.00;;
23712;SDS011;12035;49.978;8.298;2022-12-18T10:05:51;41.33;;;19.33;;
23712;SDS011;12035;49.978;8.298;2022-12-18T10:11:01;35.50;;;17.05;;
23712;SDS011;12035;49.978;8.298;2022-12-18T10:16:19;35.58;;;17.00;;
23712;SDS011;12035;49.978;8.298;2022-12-18T10:21:28;36.92;;;17.00;;
23712;SDS011;12035;49.978;8.298;2022-12-18T10:26:38;39.83;;;18.80;;
23712;SDS011;12035;49.978;8.298;2022-12-18T10:31:37;39.53;;;17.23;;
23712;SDS011;12035;49.978;8.298;2022-12-18T10:36:35;39.75;;;18.73;;
23712;SDS011;12035;49.978;8.298;2022-12-18T10:41:35;45.78;;;19.00;;
23712;SDS011;12035;49.978;8.298;2022-12-18T10:46:33;38.25;;;18.85;;
23712;SDS011;12035;49.978;8.298;2022-12-18T10:51:31;38.78;;;18.48;;
23712;SDS011;12035;49.978;8.298;2022-12-18T10:56:31;39.03;;;18.98;;
23712;SDS011;12035;49.978;8.298;2022-12-18T11:01:44;34.97;;;17.48;;
23712;SDS011;12035;49.978;8.298;2022-12-18T11:06:52;41.85;;;19.25;;
23712;SDS011;12035;49.978;8.298;2022-12-18T11:11:53;37.13;;;16.45;;
23712;SDS011;12035;49.978;8.298;2022-12-18T11:16:54;36.63;;;18.40;;
23712;SDS011;12035;49.978;8.298;2022-12-18T11:21:53;38.15;;;19.02;;
23712;SDS011;12035;49.978;8.298;2022-12-18T11:26:50;38.55;;;19.17;;
23712;SDS011;12035;49.978;8.298;2022-12-18T11:31:47;33.90;;;18.02;;
23712;SDS011;12035;49.978;8.298;2022-12-18T11:36:46;38.08;;;17.63;;
23712;SDS011;12035;49.978;8.298;2022-12-18T11:41:47;36.22;;;18.13;;
23712;SDS011;12035;49.978;8.298;2022-12-18T11:47:09;34.05;;;17.60;;
23712;SDS011;12035;49.978;8.298;2022-12-18T11:52:18;37.42;;;18.85;;
23712;SDS011;12035;49.978;8.298;2022-12-18T11:57:24;41.65;;;18.30;;
23712;SDS011;12035;49.978;8.298;2022-12-18T12:02:42;33.45;;;18.13;;
23712;SDS011;12035;49.978;8.298;2022-12-18T12:08:14;37.65;;;18.27;;
23712;SDS011;12035;49.978;8.298;2022-12-18T12:13:22;42.10;;;20.52;;
23712;SDS011;12035;49.978;8.298;2022-12-18T12:18:31;36.60;;;17.13;;
23712;SDS011;12035;49.978;8.298;2022-12-18T12:23:42;32.42;;;16.85;;
23712;SDS011;12035;49.978;8.298;2022-12-18T12:28:53;32.58;;;17.48;;
23712;SDS011;12035;49.978;8.298;2022-12-18T12:34:11;46.33;;;21.90;;
23712;SDS011;12035;49.978;8.298;2022-12-18T12:39:20;40.85;;;19.65;;
23712;SDS011;12035;49.978;8.298;2022-12-18T12:44:22;38.17;;;19.38;;
23712;SDS011;12035;49.978;8.298;2022-12-18T12:49:23;44.08;;;21.15;;
23712;SDS011;12035;49.978;8.298;2022-12-18T12:54:25;42.90;;;21.17;;
23712;SDS011;12035;49.978;8.298;2022-12-18T12:59:24;42.70;;;19.60;;
23712;SDS011;12035;49.978;8.298;2022-12-18T13:04:30;43.80;;;19.85;;
23712;SDS011;12035;49.978;8.298;2022-12-18T13:09:36;41.25;;;19.00;;
23712;SDS011;12035;49.978;8.298;2022-12-18T13:15:30;46.08;;;21.75;;
23712;SDS011;12035;49.978;8.298;2022-12-18T13:20:34;46.30;;;20.88;;
23712;SDS011;12035;49.978;8.298;2022-12-18T13:25:35;44.45;;;19.05;;
23712;SDS011;12035;49.978;8.298;2022-12-18T13:30:50;49.25;;;19.45;;
23712;SDS011;12035;49.978;8.298;2022-12-18T13:36:08;48.38;;;19.33;;
23712;SDS011;12035;49.978;8.298;2022-12-18T13:41:24;54.05;;;21.25;;
23712;SDS011;12035;49.978;8.298;2022-12-18T13:46:24;47.05;;;21.27;;
23712;SDS011;12035;49.978;8.298;2022-12-18T13:51:24;45.30;;;18.42;;
23712;SDS011;12035;49.978;8.298;2022-12-18T13:56:24;45.88;;;19.58;;
23712;SDS011;12035;49.978;8.298;2022-12-18T14:01:24;49.70;;;21.05;;
23712;SDS011;12035;49.978;8.298;2022-12-18T14:06:21;40.35;;;17.83;;
23712;SDS011;12035;49.978;8.298;2022-12-18T14:11:19;41.85;;;20.45;;
23712;SDS011;12035;49.978;8.298;2022-12-18T14:16:20;43.80;;;18.08;;
23712;SDS011;12035;49.978;8.298;2022-12-18T14:21:20;50.25;;;22.25;;
23712;SDS011;12035;49.978;8.298;2022-12-18T14:26:25;50.47;;;21.80;;
23712;SDS011;12035;49.978;8.298;2022-12-18T14:31:26;43.17;;;18.02;;
23712;SDS011;12035;49.978;8.298;2022-12-18T14:36:26;45.80;;;20.10;;
23712;SDS011;12035;49.978;8.298;2022-12-18T14:41:26;49.38;;;20.95;;
23712;SDS011;12035;49.978;8.298;2022-12-18T14:46:28;47.67;;;19.65;;
23712;SDS011;12035;49.978;8.298;2022-12-18T14:51:30;47.50;;;20.38;;
23712;SDS011;12035;49.978;8.298;2022-12-18T14:56:31;42.15;;;18.27;;
23712;SDS011;12035;49.978;8.298;2022-12-18T15:01:31;50.88;;;21.67;;
23712;SDS011;12035;49.978;8.298;2022-12-18T15:06:32;50.30;;;22.13;;
23712;SDS011;12035;49.978;8.298;2022-12-18T15:11:34;47.90;;;20.83;;
23712;SDS011;12035;49.978;8.298;2022-12-18T15:16:41;43.95;;;19.05;;
23712;SDS011;12035;49.978;8.298;2022-12-18T15:21:38;49.05;;;21.10;;
23712;SDS011;12035;49.978;8.298;2022-12-18T15:26:41;57.75;;;26.45;;
23712;SDS011;12035;49.978;8.298;2022-12-18T15:31:38;47.38;;;20.88;;
23712;SDS011;12035;49.978;8.298;2022-12-18T15:36:36;46.33;;;21.35;;
23712;SDS011;12035;49.978;8.298;2022-12-18T15:41:34;52.20;;;21.38;;
23712;SDS011;12035;49.978;8.298;2022-12-18T15:46:33;49.05;;;21.25;;
23712;SDS011;12035;49.978;8.298;2022-12-18T15:51:31;43.75;;;20.10;;
23712;SDS011;12035;49.978;8.298;2022-12-18T15:56:31;50.47;;;21.65;;
23712;SDS011;12035;49.978;8.298;2022-12-18T16:01:48;60.45;;;23.45;;
23712;SDS011;12035;49.978;8.298;2022-12-18T16:06:47;51.75;;;22.48;;
23712;SDS011;12035;49.978;8.298;2022-12-18T16:11:46;46.15;;;20.67;;
23712;SDS011;12035;49.978;8.298;2022-12-18T16:16:44;47.25;;;20.75;;
23712;SDS011;12035;49.978;8.298;2022-12-18T16:21:44;46.30;;;21.20;;
23712;SDS011;12035;49.978;8.298;2022-12-18T16:26:43;41.53;;;19.10;;
23712;SDS011;12035;49.978;8.298;2022-12-18T16:31:40;38.92;;;17.58;;
23712;SDS011;12035;49.978;8.298;2022-12-18T16:36:39;44.70;;;19.60;;
23712;SDS011;12035;49.978;8.298;2022-12-18T16:41:36;43.65;;;17.80;;
23712;SDS011;12035;49.978;8.298;2022-12-18T16:46:33;41.40;;;17.73;;
23712;SDS011;12035;49.978;8.298;2022-12-18T16:51:31;40.67;;;18.05;;
23712;SDS011;12035;49.978;8.298;2022-12-18T16:56:31;41.97;;;18.45;;
23712;SDS011;12035;49.978;8.298;2022-12-18T17:01:28;50.45;;;24.45;;
23712;SDS011;12035;49.978;8.298;2022-12-18T17:06:28;59.83;;;27.45;;
23712;SDS011;12035;49.978;8.298;2022-12-18T17:11:27;44.17;;;19.23;;
23712;SDS011;12035;49.978;8.298;2022-12-18T17:16:27;48.33;;;19.85;;
23712;SDS011;12035;49.978;8.298;2022-12-18T17:21:24;45.67;;;18.65;;
23712;SDS011;12035;49.978;8.298;2022-12-18T17:26:21;45.33;;;19.92;;
23712;SDS011;12035;49.978;8.298;2022-12-18T17:31:20;42.03;;;17.67;;
23712;SDS011;12035;49.978;8.298;2022-12-18T17:36:19;40.58;;;17.60;;
23712;SDS011;12035;49.978;8.298;2022-12-18T17:41:18;46.58;;;20.35;;
23712;SDS011;12035;49.978;8.298;2022-12-18T17:46:15;41.40;;;20.17;;
23712;SDS011;12035;49.978;8.298;2022-12-18T17:51:14;40.00;;;17.42;;
23712;SDS011;12035;49.978;8.298;2022-12-18T17:56:14;38.45;;;17.13;;
23712;SDS011;12035;49.978;8.298;2022-12-18T18:01:14;37.78;;;16.50;;
23712;SDS011;12035;49.978;8.298;2022-12-18T18:06:16;50.28;;;22.80;;
23712;SDS011;12035;49.978;8.298;2022-12-18T18:11:14;32.50;;;15.60;;
23712;SDS011;12035;49.978;8.298;2022-12-18T18:16:31;41.30;;;18.55;;
23712;SDS011;12035;49.978;8.298;2022-12-18T18:21:32;42.97;;;18.20;;
23712;SDS011;12035;49.978;8.298;2022-12-18T18:26:30;37.38;;;17.38;;
23712;SDS011;12035;49.978;8.298;2022-12-18T18:31:29;45.58;;;19.05;;
23712;SDS011;12035;49.978;8.298;2022-12-18T18:36:28;37.72;;;17.25;;
23712;SDS011;12035;49.978;8.298;2022-12-18T18:41:27;53.92;;;24.67;;
23712;SDS011;12035;49.978;8.298;2022-12-18T18:46:25;41.80;;;19.13;;
23712;SDS011;12035;49.978;8.298;2022-12-18T18:51:22;36.67;;;17.73;;
23712;SDS011;12035;49.978;8.298;2022-12-18T18:56:21;39.72;;;17.75;;
23712;SDS011;12035;49.978;8.298;2022-12-18T19:01:22;42.47;;;19.25;;
23712;SDS011;12035;49.978;8.298;2022-12-18T19:06:21;41.92;;;18.13;;
23712;SDS011;12035;49.978;8.298;2022-12-18T19:11:20;43.65;;;19.80;;
23712;SDS011;12035;49.978;8.298;2022-12-18T19:16:38;44.93;;;20.47;;
23712;SDS011;12035;49.978;8.298;2022-12-18T19:21:35;42.00;;;18.88;;
23712;SDS011;12035;49.978;8.298;2022-12-18T19:26:32;44.63;;;19.25;;
23712;SDS011;12035;49.978;8.298;2022-12-18T19:31:29;38.17;;;17.85;;
23712;SDS011;12035;49.978;8.298;2022-12-18T19:36:29;39.00;;;18.45;;
23712;SDS011;12035;49.978;8.298;2022-12-18T19:41:27;40.75;;;18.50;;
23712;SDS011;12035;49.978;8.298;2022-12-18T19:46:24;41.40;;;17.67;;
23712;SDS011;12035;49.978;8.298;2022-12-18T19:51:23;42.65;;;19.35;;
23712;SDS011;12035;49.978;8.298;2022-12-18T19:56:23;40.03;;;19.10;;
23712;SDS011;12035;49.978;8.298;2022-12-18T20:01:23;40.80;;;18.38;;
23712;SDS011;12035;49.978;8.298;2022-12-18T20:06:23;40.38;;;18.05;;
23712;SDS011;12035;49.978;8.298;2022-12-18T20:11:23;38.97;;;16.92;;
23712;SDS011;12035;49.978;8.298;2022-12-18T20:16:21;39.30;;;18.20;;
23712;SDS011;12035;49.978;8.298;2022-12-18T20:21:18;37.92;;;16.90;;
23712;SDS011;12035;49.978;8.298;2022-12-18T20:26:19;34.97;;;15.82;;
23712;SDS011;12035;49.978;8.298;2022-12-18T20:31:17;34.50;;;16.00;;
23712;SDS011;12035;49.978;8.298;2022-12-18T20:36:15;40.47;;;17.73;;
23712;SDS011;12035;49.978;8.298;2022-12-18T20:41:16;38.30;;;17.98;;
23712;SDS011;12035;49.978;8.298;2022-12-18T20:46:15;39.88;;;18.67;;
23712;SDS011;12035;49.978;8.298;2022-12-18T20:51:14;38.75;;;17.92;;
23712;SDS011;12035;49.978;8.298;2022-12-18T20:56:14;35.65;;;16.92;;
23712;SDS011;12035;49.978;8.298;2022-12-18T21:01:14;35.67;;;16.52;;
23712;SDS011;12035;49.978;8.298;2022-12-18T21:06:15;38.63;;;16.77;;
23712;SDS011;12035;49.978;8.298;2022-12-18T21:11:15;34.92;;;15.95;;
23712;SDS011;12035;49.978;8.298;2022-12-18T21:16:40;35.55;;;15.98;;
23712;SDS011;12035;49.978;8.298;2022-12-18T21:21:39;39.22;;;17.88;;
23712;SDS011;12035;49.978;8.298;2022-12-18T21:26:37;36.15;;;15.48;;
23712;SDS011;12035;49.978;8.298;2022-12-18T21:31:35;37.03;;;17.50;;
23712;SDS011;12035;49.978;8.298;2022-12-18T21:36:35;38.78;;;17.45;;
23712;SDS011;12035;49.978;8.298;2022-12-18T21:41:32;39.85;;;18.67;;
23712;SDS011;12035;49.978;8.298;2022-12-18T21:46:46;39.20;;;19.75;;
23712;SDS011;12035;49.978;8.298;2022-12-18T21:51:46;41.80;;;19.10;;
23712;SDS011;12035;49.978;8.298;2022-12-18T21:56:45;39.70;;;19.02;;
23712;SDS011;12035;49.978;8.298;2022-12-18T22:01:45;36.78;;;18.00;;
23712;SDS011;12035;49.978;8.298;2022-12-18T22:06:43;38.42;;;17.90;;
23712;SDS011;12035;49.978;8.298;2022-12-18T22:11:41;35.33;;;17.33;;
23712;SDS011;12035;49.978;8.298;2022-12-18T22:16:39;38.58;;;17.25;;
23712;SDS011;12035;49.978;8.298;2022-12-18T22:21:37;39.00;;;17.58;;
23712;SDS011;12035;49.978;8.298;2022-12-18T22:26:36;35.83;;;17.15;;
23712;SDS011;12035;49.978;8.298;2022-12-18T22:31:35;34.58;;;16.58;;
23712;SDS011;12035;49.978;8.298;2022-12-18T22:36:33;39.83;;;17.67;;
23712;SDS011;12035;49.978;8.298;2022-12-18T22:41:32;38.42;;;17.40;;
23712;SDS011;12035;49.978;8.298;2022-12-18T22:46:30;41.78;;;19.13;;
23712;SDS011;12035;49.978;8.298;2022-12-18T22:51:33;37.88;;;17.42;;
23712;SDS011;12035;49.978;8.298;2022-12-18T22:56:31;37.20;;;17.45;;
23712;SDS011;12035;49.978;8.298;2022-12-18T23:01:29;39.33;;;17.80;;
23712;SDS011;12035;49.978;8.298;2022-12-18T23:06:28;41.40;;;18.23;;
23712;SDS011;12035;49.978;8.298;2022-12-18T23:11:25;38.70;;;16.85;;
23712;SDS011;12035;49.978;8.298;2022-12-18T23:16:22;44.50;;;17.77;;
23712;SDS011;12035;49.978;8.298;2022-12-18T23:21:20;38.60;;;16.45;;
23712;SDS011;12035;49.978;8.298;2022-12-18T23:26:20;38.50;;;18.48;;
23712;SDS011;12035;49.978;8.298;2022-12-18T23:31:20;39.63;;;16.83;;
23712;SDS011;12035;49.978;8.298;2022-12-18T23:36:19;43.50;;;18.65;;
23712;SDS011;12035;49.978;8.298;2022-12-18T23:41:17;38.55;;;17.90;;
23712;SDS011;12035;49.978;8.298;2022-12-18T23:46:19;33.45;;;16.15;;
23712;SDS011;12035;49.978;8.298;2022-12-18T23:51:19;37.83;;;16.15;;
23712;SDS011;12035;49.978;8.298;2022-12-18T23:56:21;37.17;;;17.30;;
